sensor_id;sensor_type;location;lat;lon;timestamp;P1;durP1;ratioP1;P2;durP2;ratioP2
12665;SDS011;58531;59.050;17.416;2023-10-19T00:00:47;5.50;;;2.37;;
12665;SDS011;58531;59.050;17.416;2023-10-19T00:03:15;5.13;;;2.57;;
12665;SDS011;58531;59.050;17.416;2023-10-19T00:05:44;6.03;;;2.70;;
12665;SDS011;58531;59.050;17.416;2023-10-19T00:08:11;5.17;;;2.90;;
12665;SDS011;58531;59.050;17.416;2023-10-19T00:10:43;7.00;;;2.73;;
12665;SDS011;58531;59.050;17.416;2023-10-19T00:13:10;5.60;;;2.57;;
12665;SDS011;58531;59.050;17.416;2023-10-19T00:15:38;4.87;;;2.50;;
12665;SDS011;58531;59.050;17.416;2023-10-19T00:18:05;4.57;;;2.57;;
12665;SDS011;58531;59.050;17.416;2023-10-19T00:20:47;5.40;;;2.57;;
12665;SDS011;58531;59.050;17.416;2023-10-19T00:23:18;5.60;;;2.67;;
12665;SDS011;58531;59.050;17.416;2023-10-19T00:25:54;5.03;;;2.43;;
12665;SDS011;58531;59.050;17.416;2023-10-19T00:28:21;5.30;;;2.17;;
12665;SDS011;58531;59.050;17.416;2023-10-19T00:30:47;6.60;;;2.53;;
12665;SDS011;58531;59.050;17.416;2023-10-19T00:33:17;4.53;;;2.07;;
12665;SDS011;58531;59.050;17.416;2023-10-19T00:35:46;5.13;;;2.53;;
12665;SDS011;58531;59.050;17.416;2023-10-19T00:38:22;6.37;;;2.33;;
12665;SDS011;58531;59.050;17.416;2023-10-19T00:41:18;4.90;;;2.10;;
12665;SDS011;58531;59.050;17.416;2023-10-19T00:43:49;4.77;;;2.70;;
12665;SDS011;58531;59.050;17.416;2023-10-19T00:46:22;7.67;;;2.50;;
12665;SDS011;58531;59.050;17.416;2023-10-19T00:48:58;7.13;;;3.10;;
12665;SDS011;58531;59.050;17.416;2023-10-19T00:51:29;5.60;;;2.57;;
12665;SDS011;58531;59.050;17.416;2023-10-19T00:54:11;4.90;;;2.40;;
12665;SDS011;58531;59.050;17.416;2023-10-19T00:56:51;7.00;;;2.57;;
12665;SDS011;58531;59.050;17.416;2023-10-19T00:59:21;5.67;;;2.57;;
12665;SDS011;58531;59.050;17.416;2023-10-19T01:01:50;5.93;;;2.80;;
12665;SDS011;58531;59.050;17.416;2023-10-19T01:04:19;7.93;;;3.10;;
12665;SDS011;58531;59.050;17.416;2023-10-19T01:06:49;6.70;;;2.83;;
12665;SDS011;58531;59.050;17.416;2023-10-19T01:09:30;6.43;;;2.80;;
12665;SDS011;58531;59.050;17.416;2023-10-19T01:12:00;3.77;;;2.37;;
12665;SDS011;58531;59.050;17.416;2023-10-19T01:14:31;4.17;;;2.07;;
12665;SDS011;58531;59.050;17.416;2023-10-19T01:16:59;5.33;;;2.23;;
12665;SDS011;58531;59.050;17.416;2023-10-19T01:19:29;4.33;;;2.30;;
12665;SDS011;58531;59.050;17.416;2023-10-19T01:21:57;4.40;;;2.40;;
12665;SDS011;58531;59.050;17.416;2023-10-19T01:24:30;6.13;;;2.23;;
12665;SDS011;58531;59.050;17.416;2023-10-19T01:27:05;4.07;;;1.90;;
12665;SDS011;58531;59.050;17.416;2023-10-19T01:29:34;2.10;;;1.60;;
12665;SDS011;58531;59.050;17.416;2023-10-19T01:32:03;3.43;;;1.90;;
12665;SDS011;58531;59.050;17.416;2023-10-19T01:34:33;3.43;;;2.20;;
12665;SDS011;58531;59.050;17.416;2023-10-19T01:37:01;2.70;;;1.60;;
12665;SDS011;58531;59.050;17.416;2023-10-19T01:39:30;2.57;;;1.80;;
12665;SDS011;58531;59.050;17.416;2023-10-19T01:42:00;3.33;;;1.50;;
12665;SDS011;58531;59.050;17.416;2023-10-19T01:44:26;3.07;;;1.73;;
12665;SDS011;58531;59.050;17.416;2023-10-19T01:46:53;2.50;;;1.80;;
12665;SDS011;58531;59.050;17.416;2023-10-19T01:49:20;3.40;;;2.00;;
12665;SDS011;58531;59.050;17.416;2023-10-19T01:51:53;2.57;;;1.50;;
12665;SDS011;58531;59.050;17.416;2023-10-19T01:54:19;3.73;;;1.97;;
12665;SDS011;58531;59.050;17.416;2023-10-19T01:56:52;3.53;;;1.60;;
12665;SDS011;58531;59.050;17.416;2023-10-19T01:59:22;4.07;;;1.70;;
12665;SDS011;58531;59.050;17.416;2023-10-19T02:01:52;2.10;;;1.40;;
12665;SDS011;58531;59.050;17.416;2023-10-19T02:04:20;4.33;;;1.40;;
12665;SDS011;58531;59.050;17.416;2023-10-19T02:06:47;2.17;;;1.37;;
12665;SDS011;58531;59.050;17.416;2023-10-19T02:09:17;2.90;;;1.30;;
12665;SDS011;58531;59.050;17.416;2023-10-19T02:11:47;3.57;;;1.50;;
12665;SDS011;58531;59.050;17.416;2023-10-19T02:14:17;2.50;;;1.50;;
12665;SDS011;58531;59.050;17.416;2023-10-19T02:16:44;2.70;;;1.70;;
12665;SDS011;58531;59.050;17.416;2023-10-19T02:19:16;1.70;;;1.20;;
12665;SDS011;58531;59.050;17.416;2023-10-19T02:21:42;1.97;;;1.40;;
12665;SDS011;58531;59.050;17.416;2023-10-19T02:24:13;2.97;;;1.70;;
12665;SDS011;58531;59.050;17.416;2023-10-19T02:26:40;3.50;;;1.40;;
12665;SDS011;58531;59.050;17.416;2023-10-19T02:29:07;2.23;;;1.57;;
12665;SDS011;58531;59.050;17.416;2023-10-19T02:31:36;3.97;;;1.30;;
12665;SDS011;58531;59.050;17.416;2023-10-19T02:34:03;2.93;;;1.60;;
12665;SDS011;58531;59.050;17.416;2023-10-19T02:36:30;3.10;;;1.60;;
12665;SDS011;58531;59.050;17.416;2023-10-19T02:38:57;3.07;;;1.53;;
12665;SDS011;58531;59.050;17.416;2023-10-19T02:41:25;1.80;;;1.33;;
12665;SDS011;58531;59.050;17.416;2023-10-19T02:43:52;2.80;;;1.37;;
12665;SDS011;58531;59.050;17.416;2023-10-19T02:46:30;2.43;;;1.20;;
12665;SDS011;58531;59.050;17.416;2023-10-19T02:49:01;3.53;;;1.33;;
12665;SDS011;58531;59.050;17.416;2023-10-19T02:51:29;1.90;;;1.13;;
12665;SDS011;58531;59.050;17.416;2023-10-19T02:53:56;2.70;;;1.50;;
12665;SDS011;58531;59.050;17.416;2023-10-19T02:56:24;2.40;;;1.80;;
12665;SDS011;58531;59.050;17.416;2023-10-19T02:58:52;3.33;;;1.53;;
12665;SDS011;58531;59.050;17.416;2023-10-19T03:01:19;1.80;;;1.13;;
12665;SDS011;58531;59.050;17.416;2023-10-19T03:03:50;2.30;;;1.30;;
12665;SDS011;58531;59.050;17.416;2023-10-19T03:06:21;2.43;;;1.30;;
12665;SDS011;58531;59.050;17.416;2023-10-19T03:08:47;3.73;;;1.50;;
12665;SDS011;58531;59.050;17.416;2023-10-19T03:11:22;3.27;;;1.40;;
12665;SDS011;58531;59.050;17.416;2023-10-19T03:13:48;3.70;;;1.63;;
12665;SDS011;58531;59.050;17.416;2023-10-19T03:16:17;3.67;;;1.43;;
12665;SDS011;58531;59.050;17.416;2023-10-19T03:18:43;2.57;;;1.30;;
12665;SDS011;58531;59.050;17.416;2023-10-19T03:21:10;3.30;;;1.50;;
12665;SDS011;58531;59.050;17.416;2023-10-19T03:23:37;3.33;;;1.60;;
12665;SDS011;58531;59.050;17.416;2023-10-19T03:26:06;1.73;;;1.27;;
12665;SDS011;58531;59.050;17.416;2023-10-19T03:28:47;3.67;;;1.50;;
12665;SDS011;58531;59.050;17.416;2023-10-19T03:31:14;4.30;;;1.50;;
12665;SDS011;58531;59.050;17.416;2023-10-19T03:33:44;2.77;;;1.67;;
12665;SDS011;58531;59.050;17.416;2023-10-19T03:36:13;4.03;;;1.40;;
12665;SDS011;58531;59.050;17.416;2023-10-19T03:38:41;2.17;;;1.47;;
12665;SDS011;58531;59.050;17.416;2023-10-19T03:41:09;3.10;;;1.50;;
12665;SDS011;58531;59.050;17.416;2023-10-19T03:43:36;2.20;;;1.40;;
12665;SDS011;58531;59.050;17.416;2023-10-19T03:46:05;4.03;;;1.60;;
12665;SDS011;58531;59.050;17.416;2023-10-19T03:48:47;3.80;;;1.17;;
12665;SDS011;58531;59.050;17.416;2023-10-19T03:51:14;2.93;;;1.60;;
12665;SDS011;58531;59.050;17.416;2023-10-19T03:53:44;3.60;;;1.50;;
12665;SDS011;58531;59.050;17.416;2023-10-19T03:56:19;3.07;;;1.37;;
12665;SDS011;58531;59.050;17.416;2023-10-19T03:58:46;2.70;;;1.30;;
12665;SDS011;58531;59.050;17.416;2023-10-19T04:01:15;2.67;;;1.27;;
12665;SDS011;58531;59.050;17.416;2023-10-19T04:03:44;3.00;;;1.63;;
12665;SDS011;58531;59.050;17.416;2023-10-19T04:06:11;2.03;;;1.20;;
12665;SDS011;58531;59.050;17.416;2023-10-19T04:08:40;4.60;;;1.27;;
12665;SDS011;58531;59.050;17.416;2023-10-19T04:11:09;4.90;;;1.70;;
12665;SDS011;58531;59.050;17.416;2023-10-19T04:13:47;1.53;;;1.23;;
12665;SDS011;58531;59.050;17.416;2023-10-19T04:16:18;2.00;;;1.10;;
12665;SDS011;58531;59.050;17.416;2023-10-19T04:18:46;2.40;;;1.20;;
12665;SDS011;58531;59.050;17.416;2023-10-19T04:21:15;6.27;;;1.73;;
12665;SDS011;58531;59.050;17.416;2023-10-19T04:23:42;4.43;;;1.40;;
12665;SDS011;58531;59.050;17.416;2023-10-19T04:26:13;2.57;;;1.43;;
12665;SDS011;58531;59.050;17.416;2023-10-19T04:28:43;5.00;;;1.40;;
12665;SDS011;58531;59.050;17.416;2023-10-19T04:31:16;3.53;;;1.10;;
12665;SDS011;58531;59.050;17.416;2023-10-19T04:33:44;2.23;;;1.10;;
12665;SDS011;58531;59.050;17.416;2023-10-19T04:36:14;2.37;;;1.10;;
12665;SDS011;58531;59.050;17.416;2023-10-19T04:38:41;2.23;;;1.30;;
12665;SDS011;58531;59.050;17.416;2023-10-19T04:41:09;3.20;;;1.33;;
12665;SDS011;58531;59.050;17.416;2023-10-19T04:43:38;4.17;;;1.47;;
12665;SDS011;58531;59.050;17.416;2023-10-19T04:46:08;2.40;;;1.10;;
12665;SDS011;58531;59.050;17.416;2023-10-19T04:48:38;1.77;;;1.13;;
12665;SDS011;58531;59.050;17.416;2023-10-19T04:51:09;4.27;;;1.63;;
12665;SDS011;58531;59.050;17.416;2023-10-19T04:53:36;8.23;;;1.60;;
12665;SDS011;58531;59.050;17.416;2023-10-19T04:56:03;2.07;;;1.20;;
12665;SDS011;58531;59.050;17.416;2023-10-19T04:58:32;3.03;;;1.33;;
12665;SDS011;58531;59.050;17.416;2023-10-19T05:01:00;2.67;;;1.40;;
12665;SDS011;58531;59.050;17.416;2023-10-19T05:03:28;2.70;;;1.23;;
12665;SDS011;58531;59.050;17.416;2023-10-19T05:05:55;3.27;;;1.43;;
12665;SDS011;58531;59.050;17.416;2023-10-19T05:08:22;3.80;;;1.50;;
12665;SDS011;58531;59.050;17.416;2023-10-19T05:10:51;4.17;;;1.40;;
12665;SDS011;58531;59.050;17.416;2023-10-19T05:13:19;3.30;;;1.33;;
12665;SDS011;58531;59.050;17.416;2023-10-19T05:15:46;2.43;;;1.23;;
12665;SDS011;58531;59.050;17.416;2023-10-19T05:18:14;2.97;;;1.20;;
12665;SDS011;58531;59.050;17.416;2023-10-19T05:20:41;3.30;;;1.40;;
12665;SDS011;58531;59.050;17.416;2023-10-19T05:23:08;2.07;;;1.37;;
12665;SDS011;58531;59.050;17.416;2023-10-19T05:25:35;2.97;;;1.30;;
12665;SDS011;58531;59.050;17.416;2023-10-19T05:28:04;6.00;;;1.47;;
12665;SDS011;58531;59.050;17.416;2023-10-19T05:30:31;2.50;;;1.30;;
12665;SDS011;58531;59.050;17.416;2023-10-19T05:32:58;2.60;;;1.30;;
12665;SDS011;58531;59.050;17.416;2023-10-19T05:35:28;2.27;;;1.37;;
12665;SDS011;58531;59.050;17.416;2023-10-19T05:37:55;2.00;;;1.50;;
12665;SDS011;58531;59.050;17.416;2023-10-19T05:40:23;2.67;;;1.23;;
12665;SDS011;58531;59.050;17.416;2023-10-19T05:42:54;3.30;;;1.47;;
12665;SDS011;58531;59.050;17.416;2023-10-19T05:45:22;3.37;;;1.20;;
12665;SDS011;58531;59.050;17.416;2023-10-19T05:47:49;2.50;;;1.30;;
12665;SDS011;58531;59.050;17.416;2023-10-19T05:50:16;3.67;;;1.40;;
12665;SDS011;58531;59.050;17.416;2023-10-19T05:52:45;2.73;;;1.30;;
12665;SDS011;58531;59.050;17.416;2023-10-19T05:55:12;3.70;;;1.40;;
12665;SDS011;58531;59.050;17.416;2023-10-19T05:57:39;4.03;;;1.43;;
12665;SDS011;58531;59.050;17.416;2023-10-19T06:00:07;3.87;;;1.30;;
12665;SDS011;58531;59.050;17.416;2023-10-19T06:02:38;5.53;;;1.93;;
12665;SDS011;58531;59.050;17.416;2023-10-19T06:05:06;2.87;;;1.50;;
12665;SDS011;58531;59.050;17.416;2023-10-19T06:07:33;3.03;;;1.20;;
12665;SDS011;58531;59.050;17.416;2023-10-19T06:10:01;5.27;;;1.73;;
12665;SDS011;58531;59.050;17.416;2023-10-19T06:12:31;2.73;;;1.43;;
12665;SDS011;58531;59.050;17.416;2023-10-19T06:14:59;3.03;;;1.40;;
12665;SDS011;58531;59.050;17.416;2023-10-19T06:17:28;3.90;;;1.60;;
12665;SDS011;58531;59.050;17.416;2023-10-19T06:19:55;4.27;;;1.77;;
12665;SDS011;58531;59.050;17.416;2023-10-19T06:22:22;2.60;;;1.50;;
12665;SDS011;58531;59.050;17.416;2023-10-19T06:24:49;4.87;;;1.57;;
12665;SDS011;58531;59.050;17.416;2023-10-19T06:27:18;3.53;;;1.47;;
12665;SDS011;58531;59.050;17.416;2023-10-19T06:29:45;2.17;;;1.33;;
12665;SDS011;58531;59.050;17.416;2023-10-19T06:32:12;3.73;;;1.40;;
12665;SDS011;58531;59.050;17.416;2023-10-19T06:34:39;2.97;;;1.43;;
12665;SDS011;58531;59.050;17.416;2023-10-19T06:37:06;2.17;;;1.30;;
12665;SDS011;58531;59.050;17.416;2023-10-19T06:39:36;1.90;;;1.40;;
12665;SDS011;58531;59.050;17.416;2023-10-19T06:42:06;5.63;;;1.40;;
12665;SDS011;58531;59.050;17.416;2023-10-19T06:44:40;3.10;;;1.43;;
12665;SDS011;58531;59.050;17.416;2023-10-19T06:47:08;1.93;;;1.20;;
12665;SDS011;58531;59.050;17.416;2023-10-19T06:49:35;4.37;;;1.77;;
12665;SDS011;58531;59.050;17.416;2023-10-19T06:52:03;2.47;;;1.43;;
12665;SDS011;58531;59.050;17.416;2023-10-19T06:54:31;3.00;;;1.10;;
12665;SDS011;58531;59.050;17.416;2023-10-19T06:56:58;5.17;;;1.40;;
12665;SDS011;58531;59.050;17.416;2023-10-19T06:59:28;1.53;;;1.30;;
12665;SDS011;58531;59.050;17.416;2023-10-19T07:01:59;2.07;;;1.30;;
12665;SDS011;58531;59.050;17.416;2023-10-19T07:04:28;2.47;;;1.30;;
12665;SDS011;58531;59.050;17.416;2023-10-19T07:06:55;1.93;;;1.20;;
12665;SDS011;58531;59.050;17.416;2023-10-19T07:09:22;1.20;;;1.07;;
12665;SDS011;58531;59.050;17.416;2023-10-19T07:11:49;5.33;;;1.23;;
12665;SDS011;58531;59.050;17.416;2023-10-19T07:14:19;1.13;;;0.90;;
12665;SDS011;58531;59.050;17.416;2023-10-19T07:16:48;2.50;;;1.30;;
12665;SDS011;58531;59.050;17.416;2023-10-19T07:19:18;1.83;;;0.80;;
12665;SDS011;58531;59.050;17.416;2023-10-19T07:21:45;1.80;;;1.03;;
12665;SDS011;58531;59.050;17.416;2023-10-19T07:24:18;1.83;;;0.90;;
12665;SDS011;58531;59.050;17.416;2023-10-19T07:26:48;2.13;;;1.00;;
12665;SDS011;58531;59.050;17.416;2023-10-19T07:29:28;3.13;;;0.90;;
12665;SDS011;58531;59.050;17.416;2023-10-19T07:31:56;1.70;;;1.03;;
12665;SDS011;58531;59.050;17.416;2023-10-19T07:34:25;2.07;;;1.00;;
12665;SDS011;58531;59.050;17.416;2023-10-19T07:36:54;1.43;;;0.90;;
12665;SDS011;58531;59.050;17.416;2023-10-19T07:39:24;2.17;;;1.30;;
12665;SDS011;58531;59.050;17.416;2023-10-19T07:41:54;0.80;;;0.80;;
12665;SDS011;58531;59.050;17.416;2023-10-19T07:44:21;1.37;;;0.90;;
12665;SDS011;58531;59.050;17.416;2023-10-19T07:46:49;1.67;;;0.70;;
12665;SDS011;58531;59.050;17.416;2023-10-19T07:49:16;3.23;;;0.90;;
12665;SDS011;58531;59.050;17.416;2023-10-19T07:51:47;1.67;;;1.00;;
12665;SDS011;58531;59.050;17.416;2023-10-19T07:54:15;2.27;;;1.00;;
12665;SDS011;58531;59.050;17.416;2023-10-19T07:56:42;1.93;;;0.90;;
12665;SDS011;58531;59.050;17.416;2023-10-19T07:59:09;1.93;;;0.93;;
12665;SDS011;58531;59.050;17.416;2023-10-19T08:01:37;4.43;;;1.23;;
12665;SDS011;58531;59.050;17.416;2023-10-19T08:04:04;2.63;;;1.00;;
12665;SDS011;58531;59.050;17.416;2023-10-19T08:06:31;1.03;;;0.70;;
12665;SDS011;58531;59.050;17.416;2023-10-19T08:09:00;2.17;;;0.70;;
12665;SDS011;58531;59.050;17.416;2023-10-19T08:11:26;1.50;;;0.97;;
12665;SDS011;58531;59.050;17.416;2023-10-19T08:13:53;2.97;;;1.07;;
12665;SDS011;58531;59.050;17.416;2023-10-19T08:16:21;1.80;;;0.70;;
12665;SDS011;58531;59.050;17.416;2023-10-19T08:18:49;0.97;;;0.87;;
12665;SDS011;58531;59.050;17.416;2023-10-19T08:21:18;2.10;;;1.00;;
12665;SDS011;58531;59.050;17.416;2023-10-19T08:23:44;0.77;;;0.77;;
12665;SDS011;58531;59.050;17.416;2023-10-19T08:26:14;1.13;;;1.03;;
12665;SDS011;58531;59.050;17.416;2023-10-19T08:28:41;1.77;;;0.70;;
12665;SDS011;58531;59.050;17.416;2023-10-19T08:31:09;0.73;;;0.73;;
12665;SDS011;58531;59.050;17.416;2023-10-19T08:33:36;0.90;;;0.80;;
12665;SDS011;58531;59.050;17.416;2023-10-19T08:36:06;1.23;;;0.60;;
12665;SDS011;58531;59.050;17.416;2023-10-19T08:38:42;0.90;;;0.70;;
12665;SDS011;58531;59.050;17.416;2023-10-19T08:41:09;1.37;;;0.90;;
12665;SDS011;58531;59.050;17.416;2023-10-19T08:43:37;1.10;;;0.70;;
12665;SDS011;58531;59.050;17.416;2023-10-19T08:46:05;1.67;;;0.70;;
12665;SDS011;58531;59.050;17.416;2023-10-19T08:48:33;0.67;;;0.60;;
12665;SDS011;58531;59.050;17.416;2023-10-19T08:51:02;1.03;;;0.47;;
12665;SDS011;58531;59.050;17.416;2023-10-19T08:53:35;0.57;;;0.50;;
12665;SDS011;58531;59.050;17.416;2023-10-19T08:56:05;2.00;;;0.80;;
12665;SDS011;58531;59.050;17.416;2023-10-19T08:58:33;0.73;;;0.40;;
12665;SDS011;58531;59.050;17.416;2023-10-19T09:01:02;0.67;;;0.60;;
12665;SDS011;58531;59.050;17.416;2023-10-19T09:03:35;1.53;;;0.80;;
12665;SDS011;58531;59.050;17.416;2023-10-19T09:06:03;0.63;;;0.60;;
12665;SDS011;58531;59.050;17.416;2023-10-19T09:08:30;1.17;;;0.70;;
12665;SDS011;58531;59.050;17.416;2023-10-19T09:11:08;1.33;;;0.60;;
12665;SDS011;58531;59.050;17.416;2023-10-19T09:13:43;2.80;;;0.80;;
12665;SDS011;58531;59.050;17.416;2023-10-19T09:16:14;0.70;;;0.60;;
12665;SDS011;58531;59.050;17.416;2023-10-19T09:18:41;1.63;;;0.80;;
12665;SDS011;58531;59.050;17.416;2023-10-19T09:21:08;1.97;;;0.70;;
12665;SDS011;58531;59.050;17.416;2023-10-19T09:23:38;1.23;;;0.70;;
12665;SDS011;58531;59.050;17.416;2023-10-19T09:26:05;0.70;;;0.60;;
12665;SDS011;58531;59.050;17.416;2023-10-19T09:28:34;2.07;;;0.70;;
12665;SDS011;58531;59.050;17.416;2023-10-19T09:31:02;1.40;;;0.70;;
12665;SDS011;58531;59.050;17.416;2023-10-19T09:33:32;1.00;;;0.70;;
12665;SDS011;58531;59.050;17.416;2023-10-19T09:36:00;1.13;;;0.70;;
12665;SDS011;58531;59.050;17.416;2023-10-19T09:38:29;0.70;;;0.70;;
12665;SDS011;58531;59.050;17.416;2023-10-19T09:40:58;0.53;;;0.40;;
12665;SDS011;58531;59.050;17.416;2023-10-19T09:43:30;0.67;;;0.50;;
12665;SDS011;58531;59.050;17.416;2023-10-19T09:46:00;0.73;;;0.50;;
12665;SDS011;58531;59.050;17.416;2023-10-19T09:48:32;1.33;;;0.83;;
12665;SDS011;58531;59.050;17.416;2023-10-19T09:51:03;1.33;;;0.60;;
12665;SDS011;58531;59.050;17.416;2023-10-19T09:53:33;2.03;;;0.87;;
12665;SDS011;58531;59.050;17.416;2023-10-19T09:56:03;0.93;;;0.80;;
12665;SDS011;58531;59.050;17.416;2023-10-19T09:58:34;0.90;;;0.60;;
12665;SDS011;58531;59.050;17.416;2023-10-19T10:01:03;0.67;;;0.50;;
12665;SDS011;58531;59.050;17.416;2023-10-19T10:03:48;1.30;;;0.70;;
12665;SDS011;58531;59.050;17.416;2023-10-19T10:06:16;1.03;;;0.50;;
12665;SDS011;58531;59.050;17.416;2023-10-19T10:08:53;0.80;;;0.70;;
12665;SDS011;58531;59.050;17.416;2023-10-19T10:11:20;0.70;;;0.60;;
12665;SDS011;58531;59.050;17.416;2023-10-19T10:13:51;0.83;;;0.60;;
12665;SDS011;58531;59.050;17.416;2023-10-19T10:16:21;1.97;;;1.30;;
12665;SDS011;58531;59.050;17.416;2023-10-19T10:18:50;0.80;;;0.53;;
12665;SDS011;58531;59.050;17.416;2023-10-19T10:21:25;1.43;;;0.70;;
12665;SDS011;58531;59.050;17.416;2023-10-19T10:23:53;2.00;;;0.70;;
12665;SDS011;58531;59.050;17.416;2023-10-19T10:26:22;1.57;;;0.77;;
12665;SDS011;58531;59.050;17.416;2023-10-19T10:29:09;2.17;;;0.60;;
12665;SDS011;58531;59.050;17.416;2023-10-19T10:31:42;0.73;;;0.50;;
12665;SDS011;58531;59.050;17.416;2023-10-19T10:34:16;0.63;;;0.43;;
12665;SDS011;58531;59.050;17.416;2023-10-19T10:37:09;1.27;;;0.63;;
12665;SDS011;58531;59.050;17.416;2023-10-19T10:39:38;0.73;;;0.50;;
12665;SDS011;58531;59.050;17.416;2023-10-19T10:42:06;0.80;;;0.70;;
12665;SDS011;58531;59.050;17.416;2023-10-19T10:44:37;1.00;;;0.57;;
12665;SDS011;58531;59.050;17.416;2023-10-19T10:47:06;0.70;;;0.70;;
12665;SDS011;58531;59.050;17.416;2023-10-19T10:49:38;1.13;;;0.60;;
12665;SDS011;58531;59.050;17.416;2023-10-19T10:52:26;0.90;;;0.73;;
12665;SDS011;58531;59.050;17.416;2023-10-19T10:54:54;1.80;;;0.67;;
12665;SDS011;58531;59.050;17.416;2023-10-19T10:57:21;2.20;;;0.80;;
12665;SDS011;58531;59.050;17.416;2023-10-19T11:00:00;2.70;;;1.00;;
12665;SDS011;58531;59.050;17.416;2023-10-19T11:02:28;0.70;;;0.60;;
12665;SDS011;58531;59.050;17.416;2023-10-19T11:04:56;1.83;;;0.77;;
12665;SDS011;58531;59.050;17.416;2023-10-19T11:07:25;0.87;;;0.67;;
12665;SDS011;58531;59.050;17.416;2023-10-19T11:09:52;0.93;;;0.60;;
12665;SDS011;58531;59.050;17.416;2023-10-19T11:12:19;2.00;;;1.00;;
12665;SDS011;58531;59.050;17.416;2023-10-19T11:14:53;1.97;;;0.70;;
12665;SDS011;58531;59.050;17.416;2023-10-19T11:17:20;1.17;;;0.60;;
12665;SDS011;58531;59.050;17.416;2023-10-19T11:19:53;0.60;;;0.60;;
12665;SDS011;58531;59.050;17.416;2023-10-19T11:22:23;1.33;;;0.60;;
12665;SDS011;58531;59.050;17.416;2023-10-19T11:24:51;0.90;;;0.70;;
12665;SDS011;58531;59.050;17.416;2023-10-19T11:27:22;2.33;;;0.80;;
12665;SDS011;58531;59.050;17.416;2023-10-19T11:29:56;1.43;;;0.70;;
12665;SDS011;58531;59.050;17.416;2023-10-19T11:32:23;0.90;;;0.73;;
12665;SDS011;58531;59.050;17.416;2023-10-19T11:34:51;1.17;;;0.90;;
12665;SDS011;58531;59.050;17.416;2023-10-19T11:37:18;0.70;;;0.70;;
12665;SDS011;58531;59.050;17.416;2023-10-19T11:39:47;1.90;;;1.10;;
12665;SDS011;58531;59.050;17.416;2023-10-19T11:42:15;1.13;;;0.90;;
12665;SDS011;58531;59.050;17.416;2023-10-19T11:44:43;2.93;;;0.97;;
12665;SDS011;58531;59.050;17.416;2023-10-19T11:47:10;1.07;;;1.00;;
12665;SDS011;58531;59.050;17.416;2023-10-19T11:49:38;2.27;;;1.13;;
12665;SDS011;58531;59.050;17.416;2023-10-19T11:52:05;2.10;;;1.07;;
12665;SDS011;58531;59.050;17.416;2023-10-19T11:54:33;1.93;;;0.80;;
12665;SDS011;58531;59.050;17.416;2023-10-19T11:57:01;2.00;;;1.50;;
12665;SDS011;58531;59.050;17.416;2023-10-19T11:59:28;2.17;;;1.00;;
12665;SDS011;58531;59.050;17.416;2023-10-19T12:01:55;1.70;;;1.13;;
12665;SDS011;58531;59.050;17.416;2023-10-19T12:04:23;1.10;;;1.00;;
12665;SDS011;58531;59.050;17.416;2023-10-19T12:06:51;1.30;;;1.20;;
12665;SDS011;58531;59.050;17.416;2023-10-19T12:09:18;1.93;;;1.30;;
12665;SDS011;58531;59.050;17.416;2023-10-19T12:11:49;1.40;;;1.00;;
12665;SDS011;58531;59.050;17.416;2023-10-19T12:14:19;1.10;;;1.00;;
12665;SDS011;58531;59.050;17.416;2023-10-19T12:16:46;4.10;;;1.50;;
12665;SDS011;58531;59.050;17.416;2023-10-19T12:19:13;1.20;;;1.10;;
12665;SDS011;58531;59.050;17.416;2023-10-19T12:21:42;1.83;;;1.23;;
12665;SDS011;58531;59.050;17.416;2023-10-19T12:24:09;2.07;;;1.30;;
12665;SDS011;58531;59.050;17.416;2023-10-19T12:26:36;1.60;;;1.20;;
12665;SDS011;58531;59.050;17.416;2023-10-19T12:29:03;1.53;;;1.43;;
12665;SDS011;58531;59.050;17.416;2023-10-19T12:31:36;2.20;;;1.47;;
12665;SDS011;58531;59.050;17.416;2023-10-19T12:34:05;1.47;;;1.30;;
12665;SDS011;58531;59.050;17.416;2023-10-19T12:36:32;2.33;;;2.07;;
12665;SDS011;58531;59.050;17.416;2023-10-19T12:39:00;2.53;;;2.10;;
12665;SDS011;58531;59.050;17.416;2023-10-19T12:41:30;5.47;;;3.90;;
12665;SDS011;58531;59.050;17.416;2023-10-19T12:43:58;2.23;;;1.30;;
12665;SDS011;58531;59.050;17.416;2023-10-19T12:46:27;1.60;;;1.10;;
12665;SDS011;58531;59.050;17.416;2023-10-19T12:48:56;2.03;;;1.23;;
12665;SDS011;58531;59.050;17.416;2023-10-19T12:51:24;0.90;;;0.90;;
12665;SDS011;58531;59.050;17.416;2023-10-19T12:53:51;1.73;;;1.20;;
12665;SDS011;58531;59.050;17.416;2023-10-19T12:56:19;1.30;;;1.20;;
12665;SDS011;58531;59.050;17.416;2023-10-19T12:58:49;1.17;;;0.90;;
12665;SDS011;58531;59.050;17.416;2023-10-19T13:01:16;1.43;;;1.30;;
12665;SDS011;58531;59.050;17.416;2023-10-19T13:03:44;2.53;;;1.53;;
12665;SDS011;58531;59.050;17.416;2023-10-19T13:06:13;1.30;;;1.03;;
12665;SDS011;58531;59.050;17.416;2023-10-19T13:08:41;1.67;;;1.20;;
12665;SDS011;58531;59.050;17.416;2023-10-19T13:11:08;1.83;;;1.33;;
12665;SDS011;58531;59.050;17.416;2023-10-19T13:13:39;4.60;;;1.43;;
12665;SDS011;58531;59.050;17.416;2023-10-19T13:16:06;2.27;;;1.20;;
12665;SDS011;58531;59.050;17.416;2023-10-19T13:18:34;1.83;;;0.97;;
12665;SDS011;58531;59.050;17.416;2023-10-19T13:21:01;2.90;;;1.23;;
12665;SDS011;58531;59.050;17.416;2023-10-19T13:23:31;1.80;;;1.00;;
12665;SDS011;58531;59.050;17.416;2023-10-19T13:25:59;4.60;;;1.40;;
12665;SDS011;58531;59.050;17.416;2023-10-19T13:28:42;2.20;;;1.40;;
12665;SDS011;58531;59.050;17.416;2023-10-19T13:31:12;1.57;;;1.43;;
12665;SDS011;58531;59.050;17.416;2023-10-19T13:33:40;1.60;;;1.10;;
12665;SDS011;58531;59.050;17.416;2023-10-19T13:36:09;2.83;;;1.30;;
12665;SDS011;58531;59.050;17.416;2023-10-19T13:38:37;2.90;;;1.10;;
12665;SDS011;58531;59.050;17.416;2023-10-19T13:41:04;1.33;;;1.10;;
12665;SDS011;58531;59.050;17.416;2023-10-19T13:43:32;1.20;;;1.10;;
12665;SDS011;58531;59.050;17.416;2023-10-19T13:46:00;1.33;;;1.00;;
12665;SDS011;58531;59.050;17.416;2023-10-19T13:48:29;2.27;;;1.00;;
12665;SDS011;58531;59.050;17.416;2023-10-19T13:50:56;1.90;;;1.10;;
12665;SDS011;58531;59.050;17.416;2023-10-19T13:53:31;1.23;;;1.00;;
12665;SDS011;58531;59.050;17.416;2023-10-19T13:55:59;2.60;;;1.40;;
12665;SDS011;58531;59.050;17.416;2023-10-19T13:58:26;2.03;;;1.13;;
12665;SDS011;58531;59.050;17.416;2023-10-19T14:00:53;2.20;;;1.23;;
12665;SDS011;58531;59.050;17.416;2023-10-19T14:03:20;2.13;;;1.00;;
12665;SDS011;58531;59.050;17.416;2023-10-19T14:05:47;1.17;;;1.00;;
12665;SDS011;58531;59.050;17.416;2023-10-19T14:08:15;2.07;;;1.00;;
12665;SDS011;58531;59.050;17.416;2023-10-19T14:10:43;1.73;;;1.17;;
12665;SDS011;58531;59.050;17.416;2023-10-19T14:13:11;1.30;;;1.00;;
12665;SDS011;58531;59.050;17.416;2023-10-19T14:15:40;1.63;;;1.10;;
12665;SDS011;58531;59.050;17.416;2023-10-19T14:18:07;1.20;;;1.10;;
12665;SDS011;58531;59.050;17.416;2023-10-19T14:20:35;1.40;;;1.03;;
12665;SDS011;58531;59.050;17.416;2023-10-19T14:23:04;1.20;;;1.10;;
12665;SDS011;58531;59.050;17.416;2023-10-19T14:25:31;1.90;;;1.40;;
12665;SDS011;58531;59.050;17.416;2023-10-19T14:28:04;1.73;;;1.20;;
12665;SDS011;58531;59.050;17.416;2023-10-19T14:30:38;1.80;;;1.37;;
12665;SDS011;58531;59.050;17.416;2023-10-19T14:33:05;1.63;;;1.30;;
12665;SDS011;58531;59.050;17.416;2023-10-19T14:35:36;3.13;;;1.40;;
12665;SDS011;58531;59.050;17.416;2023-10-19T14:38:04;2.30;;;1.40;;
12665;SDS011;58531;59.050;17.416;2023-10-19T14:40:39;2.30;;;1.20;;
12665;SDS011;58531;59.050;17.416;2023-10-19T14:43:17;2.43;;;1.40;;
12665;SDS011;58531;59.050;17.416;2023-10-19T14:45:48;2.73;;;1.67;;